sensor_id;sensor_type;location;lat;lon;timestamp;P1;durP1;ratioP1;P2;durP2;ratioP2
75441;SDS011;64019;48.312;14.226;2023-02-22T00:00:52;13.57;;;8.13;;
75441;SDS011;64019;48.312;14.226;2023-02-22T00:03:22;16.27;;;7.70;;
75441;SDS011;64019;48.312;14.226;2023-02-22T00:05:51;13.60;;;7.33;;
75441;SDS011;64019;48.312;14.226;2023-02-22T00:08:18;13.60;;;6.90;;
75441;SDS011;64019;48.312;14.226;2023-02-22T00:10:46;11.87;;;6.43;;
75441;SDS011;64019;48.312;14.226;2023-02-22T00:13:15;11.67;;;7.03;;
75441;SDS011;64019;48.312;14.226;2023-02-22T00:15:42;13.47;;;6.67;;
75441;SDS011;64019;48.312;14.226;2023-02-22T00:18:08;11.73;;;6.23;;
75441;SDS011;64019;48.312;14.226;2023-02-22T00:20:37;13.33;;;6.70;;
75441;SDS011;64019;48.312;14.226;2023-02-22T00:23:06;13.43;;;6.70;;
75441;SDS011;64019;48.312;14.226;2023-02-22T00:25:33;14.67;;;6.53;;
75441;SDS011;64019;48.312;14.226;2023-02-22T00:27:59;11.97;;;6.93;;
75441;SDS011;64019;48.312;14.226;2023-02-22T00:30:27;11.37;;;6.17;;
75441;SDS011;64019;48.312;14.226;2023-02-22T00:32:54;11.90;;;6.60;;
75441;SDS011;64019;48.312;14.226;2023-02-22T00:35:22;12.63;;;6.33;;
75441;SDS011;64019;48.312;14.226;2023-02-22T00:37:55;9.40;;;5.73;;
75441;SDS011;64019;48.312;14.226;2023-02-22T00:40:26;12.03;;;6.43;;
75441;SDS011;64019;48.312;14.226;2023-02-22T00:42:57;11.13;;;5.87;;
75441;SDS011;64019;48.312;14.226;2023-02-22T00:45:24;10.00;;;5.40;;
75441;SDS011;64019;48.312;14.226;2023-02-22T00:47:51;12.00;;;5.00;;
75441;SDS011;64019;48.312;14.226;2023-02-22T00:50:18;6.17;;;4.67;;
75441;SDS011;64019;48.312;14.226;2023-02-22T00:52:44;8.50;;;5.20;;
75441;SDS011;64019;48.312;14.226;2023-02-22T00:55:14;10.80;;;5.33;;
75441;SDS011;64019;48.312;14.226;2023-02-22T00:58:00;8.40;;;4.60;;
75441;SDS011;64019;48.312;14.226;2023-02-22T01:00:30;8.23;;;5.30;;
75441;SDS011;64019;48.312;14.226;2023-02-22T01:02:57;9.57;;;5.33;;
75441;SDS011;64019;48.312;14.226;2023-02-22T01:05:25;11.17;;;5.80;;
75441;SDS011;64019;48.312;14.226;2023-02-22T01:07:53;11.97;;;6.37;;
75441;SDS011;64019;48.312;14.226;2023-02-22T01:10:23;10.67;;;5.77;;
75441;SDS011;64019;48.312;14.226;2023-02-22T01:12:50;11.93;;;7.27;;
75441;SDS011;64019;48.312;14.226;2023-02-22T01:15:20;9.23;;;5.70;;
75441;SDS011;64019;48.312;14.226;2023-02-22T01:17:47;11.43;;;5.93;;
75441;SDS011;64019;48.312;14.226;2023-02-22T01:20:15;13.33;;;6.80;;
75441;SDS011;64019;48.312;14.226;2023-02-22T01:22:43;21.03;;;6.40;;
75441;SDS011;64019;48.312;14.226;2023-02-22T01:25:10;11.63;;;6.43;;
75441;SDS011;64019;48.312;14.226;2023-02-22T01:27:39;11.37;;;6.20;;
75441;SDS011;64019;48.312;14.226;2023-02-22T01:30:05;10.73;;;6.00;;
75441;SDS011;64019;48.312;14.226;2023-02-22T01:32:35;16.27;;;6.97;;
75441;SDS011;64019;48.312;14.226;2023-02-22T01:35:07;14.43;;;7.40;;
75441;SDS011;64019;48.312;14.226;2023-02-22T01:37:35;13.57;;;7.40;;
75441;SDS011;64019;48.312;14.226;2023-02-22T01:40:02;11.07;;;6.20;;
75441;SDS011;64019;48.312;14.226;2023-02-22T01:42:31;8.93;;;5.50;;
75441;SDS011;64019;48.312;14.226;2023-02-22T01:47:54;11.53;;;5.97;;
75441;SDS011;64019;48.312;14.226;2023-02-22T01:50:21;10.27;;;5.63;;
75441;SDS011;64019;48.312;14.226;2023-02-22T01:52:47;10.43;;;5.73;;
75441;SDS011;64019;48.312;14.226;2023-02-22T01:55:13;10.33;;;6.10;;
75441;SDS011;64019;48.312;14.226;2023-02-22T01:57:39;12.47;;;6.30;;
75441;SDS011;64019;48.312;14.226;2023-02-22T02:00:15;11.00;;;5.80;;
75441;SDS011;64019;48.312;14.226;2023-02-22T02:02:46;10.03;;;6.60;;
75441;SDS011;64019;48.312;14.226;2023-02-22T02:05:15;15.43;;;6.63;;
75441;SDS011;64019;48.312;14.226;2023-02-22T02:07:41;10.87;;;6.57;;
75441;SDS011;64019;48.312;14.226;2023-02-22T02:10:11;11.87;;;7.03;;
75441;SDS011;64019;48.312;14.226;2023-02-22T02:12:40;16.30;;;7.40;;
75441;SDS011;64019;48.312;14.226;2023-02-22T02:15:15;13.27;;;7.37;;
75441;SDS011;64019;48.312;14.226;2023-02-22T02:17:41;12.07;;;6.80;;
75441;SDS011;64019;48.312;14.226;2023-02-22T02:22:50;10.73;;;5.97;;
75441;SDS011;64019;48.312;14.226;2023-02-22T02:31:51;10.37;;;6.10;;
75441;SDS011;64019;48.312;14.226;2023-02-22T02:39:50;9.43;;;5.67;;
75441;SDS011;64019;48.312;14.226;2023-02-22T02:42:34;10.13;;;5.60;;
75441;SDS011;64019;48.312;14.226;2023-02-22T02:45:14;8.17;;;5.63;;
75441;SDS011;64019;48.312;14.226;2023-02-22T02:47:47;10.00;;;5.90;;
75441;SDS011;64019;48.312;14.226;2023-02-22T02:50:22;10.10;;;5.80;;
75441;SDS011;64019;48.312;14.226;2023-02-22T02:52:52;9.70;;;6.07;;
75441;SDS011;64019;48.312;14.226;2023-02-22T02:55:20;10.43;;;5.97;;
75441;SDS011;64019;48.312;14.226;2023-02-22T02:57:47;10.60;;;6.20;;
75441;SDS011;64019;48.312;14.226;2023-02-22T03:00:14;13.40;;;6.53;;
75441;SDS011;64019;48.312;14.226;2023-02-22T03:08:31;9.33;;;5.90;;
75441;SDS011;64019;48.312;14.226;2023-02-22T03:19:32;11.30;;;6.10;;
75441;SDS011;64019;48.312;14.226;2023-02-22T03:24:50;9.97;;;6.20;;
75441;SDS011;64019;48.312;14.226;2023-02-22T03:27:56;11.40;;;6.50;;
75441;SDS011;64019;48.312;14.226;2023-02-22T03:30:24;10.07;;;6.37;;
75441;SDS011;64019;48.312;14.226;2023-02-22T03:33:36;10.90;;;6.50;;
75441;SDS011;64019;48.312;14.226;2023-02-22T03:38:38;13.77;;;6.00;;
75441;SDS011;64019;48.312;14.226;2023-02-22T03:41:05;9.77;;;5.87;;
75441;SDS011;64019;48.312;14.226;2023-02-22T03:43:35;11.10;;;6.33;;
75441;SDS011;64019;48.312;14.226;2023-02-22T03:46:04;13.43;;;6.53;;
75441;SDS011;64019;48.312;14.226;2023-02-22T03:51:10;11.47;;;5.90;;
75441;SDS011;64019;48.312;14.226;2023-02-22T03:53:40;12.10;;;6.77;;
75441;SDS011;64019;48.312;14.226;2023-02-22T03:56:08;10.43;;;5.80;;
75441;SDS011;64019;48.312;14.226;2023-02-22T03:58:39;16.60;;;6.80;;
75441;SDS011;64019;48.312;14.226;2023-02-22T04:01:08;10.63;;;6.27;;
75441;SDS011;64019;48.312;14.226;2023-02-22T04:03:34;12.40;;;6.63;;
75441;SDS011;64019;48.312;14.226;2023-02-22T04:06:00;12.50;;;6.00;;
75441;SDS011;64019;48.312;14.226;2023-02-22T04:08:26;13.43;;;6.70;;
75441;SDS011;64019;48.312;14.226;2023-02-22T04:10:51;11.07;;;5.70;;
75441;SDS011;64019;48.312;14.226;2023-02-22T04:13:17;12.23;;;6.10;;
75441;SDS011;64019;48.312;14.226;2023-02-22T04:15:43;14.23;;;6.37;;
75441;SDS011;64019;48.312;14.226;2023-02-22T04:18:08;11.30;;;6.67;;
75441;SDS011;64019;48.312;14.226;2023-02-22T04:20:34;13.30;;;7.63;;
75441;SDS011;64019;48.312;14.226;2023-02-22T04:23:00;14.33;;;7.07;;
75441;SDS011;64019;48.312;14.226;2023-02-22T04:25:25;14.00;;;6.83;;
75441;SDS011;64019;48.312;14.226;2023-02-22T04:27:52;12.47;;;7.27;;
75441;SDS011;64019;48.312;14.226;2023-02-22T04:30:18;13.03;;;6.90;;
75441;SDS011;64019;48.312;14.226;2023-02-22T04:32:44;18.67;;;7.40;;
75441;SDS011;64019;48.312;14.226;2023-02-22T04:35:09;11.43;;;6.97;;
75441;SDS011;64019;48.312;14.226;2023-02-22T04:37:35;10.87;;;6.80;;
75441;SDS011;64019;48.312;14.226;2023-02-22T04:40:01;11.37;;;6.60;;
75441;SDS011;64019;48.312;14.226;2023-02-22T04:42:31;9.07;;;6.43;;
75441;SDS011;64019;48.312;14.226;2023-02-22T04:45:01;9.90;;;6.43;;
75441;SDS011;64019;48.312;14.226;2023-02-22T04:47:32;14.77;;;6.50;;
75441;SDS011;64019;48.312;14.226;2023-02-22T04:49:58;12.97;;;6.97;;
75441;SDS011;64019;48.312;14.226;2023-02-22T04:52:24;15.13;;;6.93;;
75441;SDS011;64019;48.312;14.226;2023-02-22T04:54:51;14.37;;;6.67;;
75441;SDS011;64019;48.312;14.226;2023-02-22T04:57:17;16.50;;;7.53;;
75441;SDS011;64019;48.312;14.226;2023-02-22T04:59:42;13.50;;;6.60;;
75441;SDS011;64019;48.312;14.226;2023-02-22T05:02:08;12.00;;;6.90;;
75441;SDS011;64019;48.312;14.226;2023-02-22T05:04:33;12.43;;;6.87;;
75441;SDS011;64019;48.312;14.226;2023-02-22T05:07:02;11.13;;;6.90;;
75441;SDS011;64019;48.312;14.226;2023-02-22T05:09:28;33.97;;;15.90;;
75441;SDS011;64019;48.312;14.226;2023-02-22T05:11:53;64.87;;;33.30;;
75441;SDS011;64019;48.312;14.226;2023-02-22T05:14:19;48.63;;;25.10;;
75441;SDS011;64019;48.312;14.226;2023-02-22T05:16:47;111.03;;;47.40;;
75441;SDS011;64019;48.312;14.226;2023-02-22T05:19:13;96.97;;;38.17;;
75441;SDS011;64019;48.312;14.226;2023-02-22T05:21:39;94.73;;;42.60;;
75441;SDS011;64019;48.312;14.226;2023-02-22T05:24:05;54.73;;;26.43;;
75441;SDS011;64019;48.312;14.226;2023-02-22T05:26:31;29.03;;;18.73;;
75441;SDS011;64019;48.312;14.226;2023-02-22T05:28:57;27.40;;;15.70;;
75441;SDS011;64019;48.312;14.226;2023-02-22T05:31:23;28.20;;;13.97;;
75441;SDS011;64019;48.312;14.226;2023-02-22T05:33:48;19.93;;;11.90;;
75441;SDS011;64019;48.312;14.226;2023-02-22T05:36:14;22.13;;;11.63;;
75441;SDS011;64019;48.312;14.226;2023-02-22T05:38:40;35.40;;;11.67;;
75441;SDS011;64019;48.312;14.226;2023-02-22T05:41:09;28.13;;;13.87;;
75441;SDS011;64019;48.312;14.226;2023-02-22T05:43:36;62.73;;;23.03;;
75441;SDS011;64019;48.312;14.226;2023-02-22T05:46:02;43.03;;;19.20;;
75441;SDS011;64019;48.312;14.226;2023-02-22T05:48:28;39.10;;;10.47;;
75441;SDS011;64019;48.312;14.226;2023-02-22T05:50:55;44.77;;;9.00;;
75441;SDS011;64019;48.312;14.226;2023-02-22T05:53:21;38.07;;;8.20;;
75441;SDS011;64019;48.312;14.226;2023-02-22T05:55:47;22.83;;;9.17;;
75441;SDS011;64019;48.312;14.226;2023-02-22T05:58:14;17.63;;;8.80;;
75441;SDS011;64019;48.312;14.226;2023-02-22T06:00:39;17.13;;;7.43;;
75441;SDS011;64019;48.312;14.226;2023-02-22T06:03:06;18.37;;;7.83;;
75441;SDS011;64019;48.312;14.226;2023-02-22T06:05:33;22.40;;;11.77;;
75441;SDS011;64019;48.312;14.226;2023-02-22T06:07:59;18.57;;;9.60;;
75441;SDS011;64019;48.312;14.226;2023-02-22T06:10:26;19.10;;;9.70;;
75441;SDS011;64019;48.312;14.226;2023-02-22T06:12:52;20.87;;;9.50;;
75441;SDS011;64019;48.312;14.226;2023-02-22T06:15:19;16.40;;;9.67;;
75441;SDS011;64019;48.312;14.226;2023-02-22T06:17:46;14.47;;;8.10;;
75441;SDS011;64019;48.312;14.226;2023-02-22T06:20:13;18.67;;;8.70;;
75441;SDS011;64019;48.312;14.226;2023-02-22T06:22:41;19.20;;;9.23;;
75441;SDS011;64019;48.312;14.226;2023-02-22T06:25:07;17.27;;;7.83;;
75441;SDS011;64019;48.312;14.226;2023-02-22T06:27:34;15.27;;;8.30;;
75441;SDS011;64019;48.312;14.226;2023-02-22T06:30:00;14.53;;;8.27;;
75441;SDS011;64019;48.312;14.226;2023-02-22T06:32:26;18.77;;;7.83;;
75441;SDS011;64019;48.312;14.226;2023-02-22T06:34:52;18.73;;;7.73;;
75441;SDS011;64019;48.312;14.226;2023-02-22T06:37:17;12.60;;;8.27;;
75441;SDS011;64019;48.312;14.226;2023-02-22T06:39:43;19.53;;;8.23;;
75441;SDS011;64019;48.312;14.226;2023-02-22T06:42:09;18.00;;;8.27;;
75441;SDS011;64019;48.312;14.226;2023-02-22T06:44:34;14.53;;;8.13;;
75441;SDS011;64019;48.312;14.226;2023-02-22T06:47:00;15.50;;;7.90;;
75441;SDS011;64019;48.312;14.226;2023-02-22T06:49:26;16.73;;;8.57;;
75441;SDS011;64019;48.312;14.226;2023-02-22T06:51:52;15.67;;;8.07;;
75441;SDS011;64019;48.312;14.226;2023-02-22T06:54:19;13.50;;;7.30;;
75441;SDS011;64019;48.312;14.226;2023-02-22T06:56:45;10.70;;;7.57;;
75441;SDS011;64019;48.312;14.226;2023-02-22T06:59:11;20.07;;;8.93;;
75441;SDS011;64019;48.312;14.226;2023-02-22T07:01:39;24.07;;;9.80;;
75441;SDS011;64019;48.312;14.226;2023-02-22T07:04:05;18.53;;;8.37;;
75441;SDS011;64019;48.312;14.226;2023-02-22T07:06:31;19.67;;;9.10;;
75441;SDS011;64019;48.312;14.226;2023-02-22T07:08:56;23.90;;;8.77;;
75441;SDS011;64019;48.312;14.226;2023-02-22T07:11:22;23.77;;;7.47;;
75441;SDS011;64019;48.312;14.226;2023-02-22T07:13:48;22.63;;;9.50;;
75441;SDS011;64019;48.312;14.226;2023-02-22T07:16:14;18.73;;;8.17;;
75441;SDS011;64019;48.312;14.226;2023-02-22T07:18:39;15.57;;;8.07;;
75441;SDS011;64019;48.312;14.226;2023-02-22T07:21:05;16.63;;;8.57;;
75441;SDS011;64019;48.312;14.226;2023-02-22T07:23:31;20.77;;;8.13;;
75441;SDS011;64019;48.312;14.226;2023-02-22T07:26:00;15.47;;;8.37;;
75441;SDS011;64019;48.312;14.226;2023-02-22T07:28:27;17.70;;;7.47;;
75441;SDS011;64019;48.312;14.226;2023-02-22T07:30:52;14.57;;;8.30;;
75441;SDS011;64019;48.312;14.226;2023-02-22T07:33:18;16.97;;;8.30;;
75441;SDS011;64019;48.312;14.226;2023-02-22T07:35:45;16.90;;;8.03;;
75441;SDS011;64019;48.312;14.226;2023-02-22T07:38:13;15.87;;;8.73;;
75441;SDS011;64019;48.312;14.226;2023-02-22T07:40:40;16.50;;;8.57;;
75441;SDS011;64019;48.312;14.226;2023-02-22T07:45:52;16.73;;;8.70;;
75441;SDS011;64019;48.312;14.226;2023-02-22T07:48:20;20.20;;;9.23;;
75441;SDS011;64019;48.312;14.226;2023-02-22T07:50:48;15.47;;;8.67;;
75441;SDS011;64019;48.312;14.226;2023-02-22T07:53:15;13.63;;;8.27;;
75441;SDS011;64019;48.312;14.226;2023-02-22T07:55:49;15.47;;;9.10;;
75441;SDS011;64019;48.312;14.226;2023-02-22T07:58:17;14.80;;;8.40;;
75441;SDS011;64019;48.312;14.226;2023-02-22T08:00:45;16.63;;;9.27;;
75441;SDS011;64019;48.312;14.226;2023-02-22T08:03:13;17.57;;;9.07;;
75441;SDS011;64019;48.312;14.226;2023-02-22T08:05:41;16.30;;;8.67;;
75441;SDS011;64019;48.312;14.226;2023-02-22T08:08:10;11.93;;;8.23;;
75441;SDS011;64019;48.312;14.226;2023-02-22T08:10:36;13.47;;;7.93;;
75441;SDS011;64019;48.312;14.226;2023-02-22T08:13:02;13.07;;;8.33;;
75441;SDS011;64019;48.312;14.226;2023-02-22T08:15:29;14.03;;;7.70;;
75441;SDS011;64019;48.312;14.226;2023-02-22T08:18:00;18.87;;;8.30;;
75441;SDS011;64019;48.312;14.226;2023-02-22T08:20:27;12.83;;;8.03;;
75441;SDS011;64019;48.312;14.226;2023-02-22T08:22:53;13.27;;;8.70;;
75441;SDS011;64019;48.312;14.226;2023-02-22T08:25:20;15.67;;;8.47;;
75441;SDS011;64019;48.312;14.226;2023-02-22T08:27:49;17.73;;;8.60;;
75441;SDS011;64019;48.312;14.226;2023-02-22T08:30:24;14.70;;;8.90;;
75441;SDS011;64019;48.312;14.226;2023-02-22T08:32:50;13.43;;;8.63;;
75441;SDS011;64019;48.312;14.226;2023-02-22T08:35:16;13.13;;;8.93;;
75441;SDS011;64019;48.312;14.226;2023-02-22T08:37:44;14.47;;;9.30;;
75441;SDS011;64019;48.312;14.226;2023-02-22T08:40:14;15.57;;;9.30;;
75441;SDS011;64019;48.312;14.226;2023-02-22T08:42:42;15.67;;;9.47;;
75441;SDS011;64019;48.312;14.226;2023-02-22T08:45:08;15.03;;;9.70;;
75441;SDS011;64019;48.312;14.226;2023-02-22T08:47:34;14.83;;;8.97;;
75441;SDS011;64019;48.312;14.226;2023-02-22T08:50:00;18.57;;;9.77;;
75441;SDS011;64019;48.312;14.226;2023-02-22T08:52:26;19.40;;;10.03;;
75441;SDS011;64019;48.312;14.226;2023-02-22T08:54:52;20.23;;;10.73;;
75441;SDS011;64019;48.312;14.226;2023-02-22T08:57:17;18.60;;;9.40;;
75441;SDS011;64019;48.312;14.226;2023-02-22T08:59:44;21.37;;;9.53;;
75441;SDS011;64019;48.312;14.226;2023-02-22T09:02:17;16.57;;;9.43;;
75441;SDS011;64019;48.312;14.226;2023-02-22T09:04:44;16.43;;;8.77;;
75441;SDS011;64019;48.312;14.226;2023-02-22T09:07:10;16.40;;;9.47;;
75441;SDS011;64019;48.312;14.226;2023-02-22T09:09:36;18.83;;;9.20;;
75441;SDS011;64019;48.312;14.226;2023-02-22T09:12:02;15.17;;;9.03;;
75441;SDS011;64019;48.312;14.226;2023-02-22T09:14:28;14.07;;;8.60;;
75441;SDS011;64019;48.312;14.226;2023-02-22T09:16:53;15.33;;;8.43;;
75441;SDS011;64019;48.312;14.226;2023-02-22T09:19:19;13.00;;;7.93;;
75441;SDS011;64019;48.312;14.226;2023-02-22T09:21:50;11.07;;;7.77;;
75441;SDS011;64019;48.312;14.226;2023-02-22T09:24:20;15.57;;;9.00;;
75441;SDS011;64019;48.312;14.226;2023-02-22T09:26:46;15.27;;;8.10;;
75441;SDS011;64019;48.312;14.226;2023-02-22T09:29:17;13.77;;;8.87;;
75441;SDS011;64019;48.312;14.226;2023-02-22T09:31:46;16.07;;;8.63;;
75441;SDS011;64019;48.312;14.226;2023-02-22T09:34:13;14.60;;;8.10;;
75441;SDS011;64019;48.312;14.226;2023-02-22T09:36:40;10.13;;;6.83;;
75441;SDS011;64019;48.312;14.226;2023-02-22T09:39:07;11.47;;;7.50;;
75441;SDS011;64019;48.312;14.226;2023-02-22T09:41:38;12.50;;;7.60;;
75441;SDS011;64019;48.312;14.226;2023-02-22T09:46:39;15.33;;;8.27;;
75441;SDS011;64019;48.312;14.226;2023-02-22T09:49:43;13.37;;;7.90;;
75441;SDS011;64019;48.312;14.226;2023-02-22T09:52:07;13.93;;;7.80;;
75441;SDS011;64019;48.312;14.226;2023-02-22T09:57:16;18.77;;;8.63;;
75441;SDS011;64019;48.312;14.226;2023-02-22T09:59:47;17.47;;;8.30;;
75441;SDS011;64019;48.312;14.226;2023-02-22T10:02:25;16.37;;;8.70;;
75441;SDS011;64019;48.312;14.226;2023-02-22T10:05:02;17.20;;;9.30;;
75441;SDS011;64019;48.312;14.226;2023-02-22T10:07:34;18.90;;;8.90;;
75441;SDS011;64019;48.312;14.226;2023-02-22T10:10:18;12.77;;;8.13;;
75441;SDS011;64019;48.312;14.226;2023-02-22T10:18:32;17.73;;;9.97;;
75441;SDS011;64019;48.312;14.226;2023-02-22T10:21:24;21.57;;;10.67;;
75441;SDS011;64019;48.312;14.226;2023-02-22T10:24:00;17.63;;;9.60;;
75441;SDS011;64019;48.312;14.226;2023-02-22T10:26:40;19.80;;;9.93;;
75441;SDS011;64019;48.312;14.226;2023-02-22T10:29:10;17.77;;;9.93;;
75441;SDS011;64019;48.312;14.226;2023-02-22T10:31:47;23.90;;;11.67;;
75441;SDS011;64019;48.312;14.226;2023-02-22T10:34:20;18.47;;;9.43;;
75441;SDS011;64019;48.312;14.226;2023-02-22T10:36:59;17.57;;;8.63;;
75441;SDS011;64019;48.312;14.226;2023-02-22T10:39:37;16.30;;;8.53;;
75441;SDS011;64019;48.312;14.226;2023-02-22T10:42:05;17.67;;;7.77;;
75441;SDS011;64019;48.312;14.226;2023-02-22T10:44:36;15.60;;;8.07;;
75441;SDS011;64019;48.312;14.226;2023-02-22T10:47:10;15.40;;;7.63;;
75441;SDS011;64019;48.312;14.226;2023-02-22T10:49:40;10.93;;;6.57;;
75441;SDS011;64019;48.312;14.226;2023-02-22T10:52:14;12.37;;;6.10;;
75441;SDS011;64019;48.312;14.226;2023-02-22T10:54:53;11.27;;;5.43;;
75441;SDS011;64019;48.312;14.226;2023-02-22T10:57:25;10.67;;;5.90;;
75441;SDS011;64019;48.312;14.226;2023-02-22T10:59:53;12.53;;;5.77;;
75441;SDS011;64019;48.312;14.226;2023-02-22T11:02:28;9.53;;;5.30;;
75441;SDS011;64019;48.312;14.226;2023-02-22T11:04:56;8.83;;;5.50;;
75441;SDS011;64019;48.312;14.226;2023-02-22T11:07:29;9.67;;;5.77;;
75441;SDS011;64019;48.312;14.226;2023-02-22T11:10:03;7.97;;;4.87;;
75441;SDS011;64019;48.312;14.226;2023-02-22T11:12:35;7.93;;;4.13;;
75441;SDS011;64019;48.312;14.226;2023-02-22T11:17:49;7.77;;;3.90;;
75441;SDS011;64019;48.312;14.226;2023-02-22T11:20:20;5.97;;;3.53;;
75441;SDS011;64019;48.312;14.226;2023-02-22T11:22:58;6.73;;;3.07;;
75441;SDS011;64019;48.312;14.226;2023-02-22T11:25:33;5.40;;;3.13;;
75441;SDS011;64019;48.312;14.226;2023-02-22T11:30:41;3.80;;;2.20;;
75441;SDS011;64019;48.312;14.226;2023-02-22T11:38:24;6.57;;;3.13;;
75441;SDS011;64019;48.312;14.226;2023-02-22T11:43:39;3.30;;;2.17;;
75441;SDS011;64019;48.312;14.226;2023-02-22T11:46:13;3.43;;;2.23;;
75441;SDS011;64019;48.312;14.226;2023-02-22T11:48:59;4.37;;;2.20;;
75441;SDS011;64019;48.312;14.226;2023-02-22T11:56:35;6.53;;;2.37;;
75441;SDS011;64019;48.312;14.226;2023-02-22T11:59:28;3.53;;;2.33;;
75441;SDS011;64019;48.312;14.226;2023-02-22T12:02:12;5.67;;;3.00;;
75441;SDS011;64019;48.312;14.226;2023-02-22T12:15:51;6.57;;;3.07;;
75441;SDS011;64019;48.312;14.226;2023-02-22T12:18:34;5.40;;;3.03;;
75441;SDS011;64019;48.312;14.226;2023-02-22T12:21:20;6.07;;;2.77;;
75441;SDS011;64019;48.312;14.226;2023-02-22T12:24:00;4.07;;;2.37;;
75441;SDS011;64019;48.312;14.226;2023-02-22T12:26:40;5.50;;;2.73;;
75441;SDS011;64019;48.312;14.226;2023-02-22T12:29:11;4.37;;;2.30;;
75441;SDS011;64019;48.312;14.226;2023-02-22T12:31:45;7.13;;;2.93;;
75441;SDS011;64019;48.312;14.226;2023-02-22T12:39:48;4.27;;;2.80;;
75441;SDS011;64019;48.312;14.226;2023-02-22T12:42:17;5.27;;;3.27;;
75441;SDS011;64019;48.312;14.226;2023-02-22T12:45:04;7.67;;;3.10;;
75441;SDS011;64019;48.312;14.226;2023-02-22T12:47:54;6.13;;;3.00;;
75441;SDS011;64019;48.312;14.226;2023-02-22T12:50:27;5.03;;;3.10;;
75441;SDS011;64019;48.312;14.226;2023-02-22T12:53:39;6.33;;;2.50;;
75441;SDS011;64019;48.312;14.226;2023-02-22T12:55:41;4.87;;;2.37;;
75441;SDS011;64019;48.312;14.226;2023-02-22T13:01:05;3.63;;;2.27;;
75441;SDS011;64019;48.312;14.226;2023-02-22T13:03:39;4.77;;;2.70;;
75441;SDS011;64019;48.312;14.226;2023-02-22T13:11:43;7.97;;;3.00;;
75441;SDS011;64019;48.312;14.226;2023-02-22T13:16:55;3.20;;;2.30;;
75441;SDS011;64019;48.312;14.226;2023-02-22T13:19:37;5.47;;;2.93;;
75441;SDS011;64019;48.312;14.226;2023-02-22T13:22:15;4.33;;;2.80;;
75441;SDS011;64019;48.312;14.226;2023-02-22T13:24:57;6.97;;;3.03;;
75441;SDS011;64019;48.312;14.226;2023-02-22T13:41:21;7.60;;;3.37;;
75441;SDS011;64019;48.312;14.226;2023-02-22T13:49:27;6.53;;;3.10;;
75441;SDS011;64019;48.312;14.226;2023-02-22T13:52:25;4.73;;;3.17;;
75441;SDS011;64019;48.312;14.226;2023-02-22T13:54:58;5.90;;;3.33;;
75441;SDS011;64019;48.312;14.226;2023-02-22T13:57:37;10.70;;;4.37;;
75441;SDS011;64019;48.312;14.226;2023-02-22T14:08:02;7.83;;;2.83;;
75441;SDS011;64019;48.312;14.226;2023-02-22T14:10:49;9.50;;;3.70;;
75441;SDS011;64019;48.312;14.226;2023-02-22T14:13:16;5.73;;;2.90;;
75441;SDS011;64019;48.312;14.226;2023-02-22T14:16:25;5.87;;;2.57;;
75441;SDS011;64019;48.312;14.226;2023-02-22T14:18:41;4.60;;;2.70;;
75441;SDS011;64019;48.312;14.226;2023-02-22T14:21:16;4.70;;;2.80;;
75441;SDS011;64019;48.312;14.226;2023-02-22T14:31:33;5.97;;;2.83;;
75441;SDS011;64019;48.312;14.226;2023-02-22T14:34:17;3.10;;;2.43;;
75441;SDS011;64019;48.312;14.226;2023-02-22T14:36:58;4.17;;;2.27;;
75441;SDS011;64019;48.312;14.226;2023-02-22T14:39:43;4.53;;;2.53;;
75441;SDS011;64019;48.312;14.226;2023-02-22T14:42:47;3.50;;;2.20;;
75441;SDS011;64019;48.312;14.226;2023-02-22T14:47:38;5.90;;;2.60;;
75441;SDS011;64019;48.312;14.226;2023-02-22T14:56:19;5.10;;;1.73;;
75441;SDS011;64019;48.312;14.226;2023-02-22T14:59:04;2.03;;;1.57;;
75441;SDS011;64019;48.312;14.226;2023-02-22T15:01:42;2.30;;;2.10;;
75441;SDS011;64019;48.312;14.226;2023-02-22T15:06:51;6.37;;;2.47;;
75441;SDS011;64019;48.312;14.226;2023-02-22T15:11:48;4.27;;;2.17;;
75441;SDS011;64019;48.312;14.226;2023-02-22T15:14:26;4.20;;;2.50;;
75441;SDS011;64019;48.312;14.226;2023-02-22T15:16:53;3.97;;;2.53;;
75441;SDS011;64019;48.312;14.226;2023-02-22T15:19:23;4.23;;;2.07;;
75441;SDS011;64019;48.312;14.226;2023-02-22T15:21:53;5.20;;;2.47;;
75441;SDS011;64019;48.312;14.226;2023-02-22T15:24:21;8.20;;;2.07;;
75441;SDS011;64019;48.312;14.226;2023-02-22T15:26:50;5.90;;;2.23;;
75441;SDS011;64019;48.312;14.226;2023-02-22T15:29:24;2.73;;;1.87;;
75441;SDS011;64019;48.312;14.226;2023-02-22T15:31:56;3.73;;;1.90;;
75441;SDS011;64019;48.312;14.226;2023-02-22T15:34:31;2.93;;;1.73;;
75441;SDS011;64019;48.312;14.226;2023-02-22T15:37:01;2.97;;;1.70;;
75441;SDS011;64019;48.312;14.226;2023-02-22T15:39:48;1.63;;;1.37;;
75441;SDS011;64019;48.312;14.226;2023-02-22T15:42:23;2.03;;;1.40;;
75441;SDS011;64019;48.312;14.226;2023-02-22T15:44:51;5.30;;;1.70;;
75441;SDS011;64019;48.312;14.226;2023-02-22T15:52:48;3.50;;;1.80;;
75441;SDS011;64019;48.312;14.226;2023-02-22T15:55:17;4.47;;;1.73;;
75441;SDS011;64019;48.312;14.226;2023-02-22T15:57:45;6.63;;;2.40;;
75441;SDS011;64019;48.312;14.226;2023-02-22T16:00:22;3.37;;;1.77;;
75441;SDS011;64019;48.312;14.226;2023-02-22T16:02:57;3.97;;;1.90;;
75441;SDS011;64019;48.312;14.226;2023-02-22T16:05:27;4.80;;;1.80;;
75441;SDS011;64019;48.312;14.226;2023-02-22T16:08:01;4.47;;;1.97;;
75441;SDS011;64019;48.312;14.226;2023-02-22T16:10:27;5.53;;;2.00;;
75441;SDS011;64019;48.312;14.226;2023-02-22T16:13:31;3.90;;;1.93;;
75441;SDS011;64019;48.312;14.226;2023-02-22T16:15:55;6.67;;;2.27;;
75441;SDS011;64019;48.312;14.226;2023-02-22T16:18:32;6.43;;;2.07;;
75441;SDS011;64019;48.312;14.226;2023-02-22T16:21:01;6.40;;;2.77;;
75441;SDS011;64019;48.312;14.226;2023-02-22T16:23:44;9.93;;;2.57;;
75441;SDS011;64019;48.312;14.226;2023-02-22T16:26:22;4.37;;;2.50;;
75441;SDS011;64019;48.312;14.226;2023-02-22T16:29:08;5.40;;;2.80;;
75441;SDS011;64019;48.312;14.226;2023-02-22T16:31:48;6.17;;;2.53;;
75441;SDS011;64019;48.312;14.226;2023-02-22T16:34:14;7.03;;;2.77;;
75441;SDS011;64019;48.312;14.226;2023-02-22T16:36:41;12.40;;;2.80;;
75441;SDS011;64019;48.312;14.226;2023-02-22T16:39:13;5.53;;;2.77;;
75441;SDS011;64019;48.312;14.226;2023-02-22T16:41:46;8.50;;;2.90;;
75441;SDS011;64019;48.312;14.226;2023-02-22T16:44:12;5.37;;;3.00;;
75441;SDS011;64019;48.312;14.226;2023-02-22T16:46:38;5.60;;;2.30;;
75441;SDS011;64019;48.312;14.226;2023-02-22T16:49:06;6.73;;;2.50;;
75441;SDS011;64019;48.312;14.226;2023-02-22T16:51:38;5.57;;;2.87;;
75441;SDS011;64019;48.312;14.226;2023-02-22T16:54:06;11.53;;;3.20;;
75441;SDS011;64019;48.312;14.226;2023-02-22T16:56:35;8.27;;;3.07;;
75441;SDS011;64019;48.312;14.226;2023-02-22T16:59:04;6.20;;;2.73;;
75441;SDS011;64019;48.312;14.226;2023-02-22T17:01:38;7.70;;;3.00;;
75441;SDS011;64019;48.312;14.226;2023-02-22T17:04:09;11.33;;;2.97;;
75441;SDS011;64019;48.312;14.226;2023-02-22T17:06:39;8.17;;;2.90;;
75441;SDS011;64019;48.312;14.226;2023-02-22T17:09:05;5.67;;;2.80;;
75441;SDS011;64019;48.312;14.226;2023-02-22T17:11:31;8.47;;;4.70;;
75441;SDS011;64019;48.312;14.226;2023-02-22T17:13:58;5.17;;;2.93;;
75441;SDS011;64019;48.312;14.226;2023-02-22T17:16:24;4.97;;;2.70;;
75441;SDS011;64019;48.312;14.226;2023-02-22T17:18:49;9.30;;;3.00;;